Time;durP1;ratioP1;P1;durP2;ratioP2;P2;SDS_P1;SDS_P2;PMS_P1;PMS_P2;Temp;Humidity;BMP_temperature;BMP_pressure;BME280_temperature;BME280_humidity;BME280_pressure;Samples;Min_cycle;Max_cycle;Signal;HPM_P1;HPM_P2
2024/03/27 00:04:17;;;;;;;17.50;6.80;;;;;;;8.79;53.89;97541.21;233456;178;136635;-60
2024/03/27 00:09:22;;;;;;;16.30;6.50;;;;;;;8.74;54.00;97548.63;233409;181;151525;-58
2024/03/27 00:14:25;;;;;;;15.40;7.50;;;;;;;8.68;54.14;97540.64;233453;180;137270;-59
2024/03/27 00:19:28;;;;;;;14.80;6.90;;;;;;;8.71;54.53;97537.02;233384;181;137575;-57
2024/03/27 00:24:31;;;;;;;14.20;7.60;;;;;;;8.72;54.65;97532.51;233423;181;151692;-56
2024/03/27 00:29:34;;;;;;;22.20;7.10;;;;;;;8.68;54.68;97528.30;233492;180;137227;-58
2024/03/27 00:34:37;;;;;;;18.00;7.60;;;;;;;8.61;54.32;97525.30;233413;180;137477;-58
2024/03/27 00:39:40;;;;;;;20.20;7.50;;;;;;;8.58;54.77;97521.66;233508;180;151971;-58
2024/03/27 00:44:43;;;;;;;16.90;7.50;;;;;;;8.56;54.56;97523.42;233471;181;138472;-58
2024/03/27 00:49:47;;;;;;;24.90;7.60;;;;;;;8.52;54.82;97517.70;233486;180;137218;-58
2024/03/27 00:54:50;;;;;;;19.60;7.50;;;;;;;8.49;54.98;97512.62;233425;169;151343;-57
2024/03/27 00:59:55;;;;;;;10.80;6.20;;;;;;;8.47;54.98;97505.33;233511;180;137320;-56
2024/03/27 01:04:58;;;;;;;11.10;5.60;;;;;;;8.49;54.74;97499.20;233352;180;140686;-58
2024/03/27 01:10:01;;;;;;;10.60;6.00;;;;;;;8.50;54.65;97492.39;233370;180;151518;-57
2024/03/27 01:15:06;;;;;;;12.50;5.60;;;;;;;8.50;54.40;97486.00;233473;181;137427;-56
2024/03/27 01:20:09;;;;;;;11.60;5.70;;;;;;;8.51;54.62;97474.81;233431;169;136868;-59
2024/03/27 01:25:13;;;;;;;12.50;5.90;;;;;;;8.49;54.56;97470.41;233515;180;151702;-57
2024/03/27 01:30:16;;;;;;;12.90;6.10;;;;;;;8.42;54.72;97454.11;233053;180;137713;-58
2024/03/27 01:35:19;;;;;;;11.60;5.40;;;;;;;8.38;54.47;97446.83;233647;180;136529;-58
2024/03/27 01:40:22;;;;;;;8.80;5.50;;;;;;;8.42;53.53;97440.33;233597;180;151779;-58
2024/03/27 01:45:25;;;;;;;8.60;5.30;;;;;;;8.51;52.84;97430.83;233540;181;137688;-56
2024/03/27 01:50:29;;;;;;;12.80;5.80;;;;;;;8.61;52.37;97427.02;233584;180;137634;-56
2024/03/27 01:55:32;;;;;;;12.30;6.00;;;;;;;8.72;52.30;97407.92;233580;180;152534;-58
2024/03/27 02:00:35;;;;;;;13.30;7.00;;;;;;;8.82;51.68;97399.14;233560;180;137353;-58
2024/03/27 02:05:39;;;;;;;10.00;5.30;;;;;;;8.84;51.42;97394.92;233553;180;136844;-57
2024/03/27 02:10:42;;;;;;;10.80;4.70;;;;;;;8.87;51.12;97389.92;233497;180;152602;-57
2024/03/27 02:15:45;;;;;;;6.30;3.80;;;;;;;8.90;50.72;97384.52;233233;177;136732;-58
2024/03/27 02:20:48;;;;;;;9.00;4.10;;;;;;;8.89;50.72;97376.48;233151;180;136928;-58
2024/03/27 02:26:25;;;;;;;9.80;4.30;;;;;;;8.88;50.52;97368.77;233567;180;152692;-57
2024/03/27 02:31:29;;;;;;;10.70;4.90;;;;;;;8.92;50.67;97362.11;233519;180;137347;-59
2024/03/27 02:36:32;;;;;;;11.10;5.50;;;;;;;8.98;50.78;97362.63;233555;180;136408;-59
2024/03/27 02:41:35;;;;;;;21.90;7.20;;;;;;;8.95;51.08;97353.52;233551;169;151929;-57
2024/03/27 02:46:37;;;;;;;12.20;6.10;;;;;;;8.93;50.98;97350.89;233513;180;137101;-57
2024/03/27 02:51:40;;;;;;;16.40;7.00;;;;;;;8.90;51.06;97343.85;233538;180;137622;-58
2024/03/27 02:56:43;;;;;;;10.60;5.50;;;;;;;9.00;50.83;97342.16;233480;180;152369;-58
2024/03/27 03:01:46;;;;;;;6.90;4.00;;;;;;;9.04;50.07;97341.86;233511;180;137139;-57
2024/03/27 03:06:49;;;;;;;10.60;3.50;;;;;;;9.06;49.45;97346.95;233564;180;137671;-57
2024/03/27 03:11:52;;;;;;;6.50;3.50;;;;;;;9.07;49.68;97339.97;233459;180;151094;-57
2024/03/27 03:16:55;;;;;;;6.90;3.60;;;;;;;9.06;50.24;97323.58;233541;180;136496;-58
2024/03/27 03:21:58;;;;;;;7.30;3.90;;;;;;;9.00;51.14;97306.23;233552;180;138013;-56
2024/03/27 03:27:01;;;;;;;7.90;3.60;;;;;;;8.88;51.29;97305.51;233501;180;151929;-57
2024/03/27 03:32:05;;;;;;;5.00;3.30;;;;;;;8.75;51.52;97296.79;233581;180;136883;-58
2024/03/27 03:37:08;;;;;;;8.40;3.90;;;;;;;8.65;51.76;97280.30;233334;180;137655;-59
2024/03/27 03:42:11;;;;;;;28.60;21.20;;;;;;;8.65;52.57;97280.82;233523;180;151952;-58
2024/03/27 03:47:14;;;;;;;115.20;86.20;;;;;;;8.65;52.20;97278.38;233508;180;136537;-58
2024/03/27 03:52:17;;;;;;;20.80;15.60;;;;;;;8.61;52.38;97267.53;233532;180;137478;-58
2024/03/27 03:57:20;;;;;;;7.10;4.30;;;;;;;8.63;51.62;97277.45;233650;180;151696;-57
2024/03/27 04:02:23;;;;;;;5.30;3.00;;;;;;;8.53;51.80;97268.21;233564;180;136225;-58
2024/03/27 04:07:26;;;;;;;5.40;3.20;;;;;;;8.45;51.72;97262.19;233494;180;136838;-59
2024/03/27 04:12:30;;;;;;;3.60;2.80;;;;;;;8.40;51.89;97257.80;233470;180;153159;-58
2024/03/27 04:17:33;;;;;;;368.60;286.70;;;;;;;8.40;52.52;97247.58;233589;180;136526;-56
2024/03/27 04:22:36;;;;;;;15.10;10.70;;;;;;;8.51;52.01;97226.71;233491;180;138415;-59
2024/03/27 04:27:39;;;;;;;8.40;3.60;;;;;;;8.56;51.39;97231.73;233532;180;151387;-57
2024/03/27 04:32:43;;;;;;;6.70;2.60;;;;;;;8.53;51.48;97243.81;233566;180;139483;-57
2024/03/27 04:37:46;;;;;;;3.80;2.60;;;;;;;8.53;51.31;97252.14;233579;180;136442;-58
2024/03/27 04:42:49;;;;;;;5.50;2.70;;;;;;;8.54;51.18;97239.20;233572;178;151632;-58
2024/03/27 04:47:52;;;;;;;9.10;3.40;;;;;;;8.51;51.66;97230.16;233581;170;138014;-57
2024/03/27 04:52:55;;;;;;;19.60;4.10;;;;;;;8.52;51.59;97222.91;233544;170;136892;-59
2024/03/27 04:57:58;;;;;;;21.20;3.70;;;;;;;8.46;51.91;97224.48;233294;180;152041;-56
2024/03/27 05:03:01;;;;;;;10.20;2.90;;;;;;;8.44;52.12;97215.81;233479;177;136234;-58
2024/03/27 05:08:05;;;;;;;8.90;2.50;;;;;;;8.44;52.07;97214.53;233709;180;136739;-58
2024/03/27 05:13:08;;;;;;;3.70;2.30;;;;;;;8.46;51.91;97213.65;233596;180;151390;-59
2024/03/27 05:18:12;;;;;;;10.60;2.70;;;;;;;8.51;51.43;97214.47;233524;180;136592;-58
2024/03/27 05:23:15;;;;;;;5.80;2.70;;;;;;;8.56;51.43;97211.02;233532;180;137183;-58
2024/03/27 05:28:19;;;;;;;5.60;2.40;;;;;;;8.60;51.85;97204.20;233618;180;153097;-59
2024/03/27 05:33:22;;;;;;;10.00;2.70;;;;;;;8.62;52.34;97197.88;233529;180;138745;-58
2024/03/27 05:38:26;;;;;;;19.40;3.50;;;;;;;8.61;52.76;97206.73;233564;177;136432;-59
2024/03/27 05:43:28;;;;;;;10.00;3.20;;;;;;;8.65;52.69;97202.16;233546;180;151528;-58
2024/03/27 05:48:32;;;;;;;5.00;3.20;;;;;;;8.70;52.33;97204.73;233554;180;137694;-58
2024/03/27 05:53:35;;;;;;;8.00;3.20;;;;;;;8.80;51.98;97209.63;233316;180;137930;-57
2024/03/27 05:58:38;;;;;;;6.40;3.60;;;;;;;8.88;51.54;97212.80;233521;180;151764;-59
2024/03/27 06:03:49;;;;;;;11.50;3.60;;;;;;;9.00;51.18;97209.09;233577;180;137407;-59
2024/03/27 06:08:52;;;;;;;11.70;3.40;;;;;;;9.13;51.38;97221.65;233556;180;137675;-58
2024/03/27 06:13:55;;;;;;;11.30;3.50;;;;;;;9.21;50.35;97232.13;233617;180;152148;-59
2024/03/27 06:18:58;;;;;;;11.60;2.50;;;;;;;9.34;50.39;97224.11;233486;177;137377;-58
2024/03/27 06:24:01;;;;;;;14.80;3.20;;;;;;;9.48;50.80;97222.00;233675;180;137491;-59
2024/03/27 06:29:04;;;;;;;7.00;3.00;;;;;;;9.62;50.57;97224.48;233583;180;152294;-58
2024/03/27 06:34:07;;;;;;;5.90;2.70;;;;;;;9.74;50.95;97232.08;233523;180;136322;-58
2024/03/27 06:39:12;;;;;;;15.20;3.90;;;;;;;9.84;51.30;97217.21;233584;180;137974;-58
2024/03/27 06:44:15;;;;;;;11.90;3.90;;;;;;;9.95;51.07;97216.83;233546;180;152016;-58
2024/03/27 06:49:18;;;;;;;25.10;4.00;;;;;;;10.06;51.23;97219.00;233514;180;136899;-59
2024/03/27 06:54:21;;;;;;;19.00;3.90;;;;;;;10.19;51.35;97220.52;233607;180;137699;-58
2024/03/27 06:59:24;;;;;;;12.10;3.50;;;;;;;10.33;51.40;97217.30;233594;180;151330;-59
2024/03/27 07:04:27;;;;;;;13.70;4.00;;;;;;;10.50;51.51;97212.98;233445;180;138675;-58
2024/03/27 07:09:30;;;;;;;12.00;3.70;;;;;;;10.64;51.14;97210.41;233495;170;137996;-56
2024/03/27 07:14:33;;;;;;;11.40;3.50;;;;;;;10.80;51.12;97209.86;233537;180;151406;-57
2024/03/27 07:19:36;;;;;;;7.80;3.50;;;;;;;11.01;50.49;97198.26;233520;173;136578;-58
2024/03/27 07:24:39;;;;;;;17.70;4.10;;;;;;;11.22;49.53;97199.66;233521;180;138669;-56
2024/03/27 07:29:42;;;;;;;18.90;4.80;;;;;;;11.47;48.73;97188.45;233499;180;151069;-59
2024/03/27 07:34:45;;;;;;;26.00;4.80;;;;;;;11.72;47.63;97189.23;233526;180;137549;-59
2024/03/27 07:39:48;;;;;;;19.80;4.40;;;;;;;11.98;47.27;97196.14;233551;177;137725;-58
2024/03/27 07:44:52;;;;;;;20.40;4.50;;;;;;;12.14;46.77;97195.52;233445;180;151165;-58
2024/03/27 07:49:55;;;;;;;17.60;4.90;;;;;;;12.31;46.75;97198.77;233588;180;137911;-58
2024/03/27 07:54:57;;;;;;;22.80;4.80;;;;;;;12.46;47.09;97197.00;233546;180;137666;-58
2024/03/27 08:00:03;;;;;;;20.80;5.00;;;;;;;12.64;46.97;97198.91;233674;180;152680;-58
2024/03/27 08:05:07;;;;;;;16.30;4.30;;;;;;;12.81;47.04;97189.37;233370;177;138103;-56
2024/03/27 08:10:11;;;;;;;7.40;2.50;;;;;;;12.99;47.16;97193.77;233454;180;137985;-59
2024/03/27 08:15:14;;;;;;;10.50;3.30;;;;;;;13.14;47.35;97196.36;233402;177;151136;-58
2024/03/27 08:20:17;;;;;;;10.40;3.50;;;;;;;13.26;47.54;97189.95;233577;180;137539;-59
2024/03/27 08:25:20;;;;;;;14.30;3.50;;;;;;;13.37;47.61;97190.12;233570;177;138748;-58
2024/03/27 08:30:24;;;;;;;9.80;3.00;;;;;;;13.51;47.73;97188.82;233554;180;152262;-59
2024/03/27 08:35:27;;;;;;;9.10;3.40;;;;;;;13.68;47.67;97177.48;233421;180;138055;-59
2024/03/27 08:40:30;;;;;;;13.80;3.50;;;;;;;13.90;47.45;97178.14;233561;180;137994;-57
2024/03/27 08:45:33;;;;;;;11.40;3.50;;;;;;;14.15;47.23;97173.40;233473;180;151895;-59
2024/03/27 08:50:40;;;;;;;12.00;2.80;;;;;;;14.39;46.72;97168.48;233511;181;137003;-59
2024/03/27 08:55:43;;;;;;;17.50;3.40;;;;;;;14.67;46.74;97161.30;233560;180;138027;-59
2024/03/27 09:00:46;;;;;;;17.60;3.20;;;;;;;14.94;46.69;97150.92;233432;181;151476;-58
2024/03/27 09:05:49;;;;;;;7.60;2.80;;;;;;;15.17;46.20;97147.29;233585;180;137991;-58
2024/03/27 09:10:52;;;;;;;10.00;2.40;;;;;;;15.41;45.91;97138.55;233558;180;137303;-57
2024/03/27 09:15:55;;;;;;;7.60;2.10;;;;;;;15.72;45.61;97134.83;233559;176;151524;-60
2024/03/27 09:21:00;;;;;;;12.00;2.80;;;;;;;15.96;45.07;97135.17;233530;180;136922;-59
2024/03/27 09:26:04;;;;;;;9.00;2.30;;;;;;;16.18;44.87;97136.70;233558;180;137592;-59
2024/03/27 09:31:07;;;;;;;7.10;2.20;;;;;;;16.39;44.50;97139.32;233545;180;152088;-59
2024/03/27 09:36:16;;;;;;;8.60;2.30;;;;;;;16.57;44.06;97134.05;233492;180;137222;-60
2024/03/27 09:41:19;;;;;;;7.80;2.40;;;;;;;16.78;44.25;97143.71;233507;180;136823;-57
2024/03/27 09:46:23;;;;;;;4.30;2.20;;;;;;;16.94;43.94;97135.19;233545;180;151968;-60
2024/03/27 09:51:28;;;;;;;18.90;2.70;;;;;;;17.08;43.99;97126.52;233402;180;136775;-59
2024/03/27 09:56:36;;;;;;;12.70;2.80;;;;;;;17.22;43.97;97127.89;233557;180;137381;-59
2024/03/27 10:01:41;;;;;;;6.50;2.90;;;;;;;17.41;44.57;97119.94;233511;180;152127;-60
2024/03/27 10:06:52;;;;;;;9.00;2.70;;;;;;;17.66;43.79;97117.37;233427;180;137510;-60
2024/03/27 10:11:55;;;;;;;11.60;3.20;;;;;;;17.92;43.22;97121.56;233409;181;137653;-60
2024/03/27 10:17:00;;;;;;;8.40;3.60;;;;;;;18.13;43.65;97116.84;233445;180;152525;-60
2024/03/27 10:22:03;;;;;;;19.00;3.70;;;;;;;18.35;43.34;97113.52;233493;180;136784;-58
2024/03/27 10:27:07;;;;;;;15.30;3.30;;;;;;;18.60;43.34;97109.31;233499;180;138040;-60
2024/03/27 10:32:10;;;;;;;9.70;2.60;;;;;;;18.84;43.06;97099.81;233450;178;150451;-58
2024/03/27 10:37:14;;;;;;;7.80;2.70;;;;;;;19.01;42.56;97088.20;233528;180;137521;-58
2024/03/27 10:42:25;;;;;;;5.50;2.00;;;;;;;19.21;42.43;97088.17;233542;180;136601;-58
2024/03/27 10:47:33;;;;;;;8.50;2.60;;;;;;;19.40;41.33;97084.09;233507;180;151406;-56
2024/03/27 10:52:37;;;;;;;10.60;2.70;;;;;;;19.57;40.84;97082.52;233501;180;137841;-57
2024/03/27 10:57:40;;;;;;;7.70;2.40;;;;;;;19.72;40.77;97083.29;233411;181;137296;-54
2024/03/27 11:02:50;;;;;;;51.10;31.90;;;;;;;19.89;41.00;97080.91;233483;180;153072;-57
2024/03/27 11:07:54;;;;;;;13.80;4.00;;;;;;;20.08;41.60;97082.41;233435;180;137863;-57
2024/03/27 11:12:59;;;;;;;7.60;2.70;;;;;;;20.29;42.58;97082.92;233256;180;136778;-57
2024/03/27 11:18:02;;;;;;;7.00;2.20;;;;;;;20.52;41.69;97077.24;233356;180;151711;-57
2024/03/27 11:23:07;;;;;;;6.80;2.80;;;;;;;20.64;40.92;97071.52;233306;181;159500;-57
2024/03/27 11:28:17;;;;;;;5.20;2.00;;;;;;;20.83;41.74;97071.20;233402;180;136485;-57
2024/03/27 11:33:21;;;;;;;11.00;2.30;;;;;;;21.02;40.57;97076.58;233594;180;153246;-56
2024/03/27 11:38:24;;;;;;;5.60;2.80;;;;;;;21.20;39.62;97068.88;233347;180;137662;-58
2024/03/27 11:43:27;;;;;;;6.60;2.30;;;;;;;21.37;40.08;97064.16;233415;180;136721;-55
2024/03/27 11:48:31;;;;;;;4.40;2.20;;;;;;;21.61;39.57;97058.79;233435;181;152032;-57
2024/03/27 11:53:37;;;;;;;4.20;2.30;;;;;;;21.73;39.16;97054.87;233353;180;137843;-58
2024/03/27 11:58:40;;;;;;;4.20;2.10;;;;;;;21.89;38.66;97060.34;233291;180;136421;-57
2024/03/27 12:03:43;;;;;;;5.20;1.90;;;;;;;22.07;37.92;97058.04;233405;180;151991;-56
2024/03/27 12:08:47;;;;;;;175.90;125.80;;;;;;;22.39;37.23;97050.30;233384;181;137698;-56
2024/03/27 12:13:50;;;;;;;6.80;3.40;;;;;;;22.67;37.03;97042.39;233308;180;138986;-57
2024/03/27 12:18:55;;;;;;;6.00;2.20;;;;;;;22.88;36.43;97035.00;233415;180;152851;-57
2024/03/27 12:23:58;;;;;;;7.20;2.10;;;;;;;23.14;35.66;97028.44;233384;180;137377;-57
2024/03/27 12:29:03;;;;;;;5.30;1.90;;;;;;;23.35;35.71;97027.84;233600;180;137423;-56
2024/03/27 12:34:06;;;;;;;5.30;2.10;;;;;;;23.10;35.06;97026.64;233520;180;152009;-57
2024/03/27 12:39:09;;;;;;;6.10;2.00;;;;;;;23.03;34.88;97023.30;233384;180;137634;-57
2024/03/27 12:44:12;;;;;;;7.40;1.70;;;;;;;23.09;34.57;97023.14;233474;180;137528;-57
2024/03/27 12:49:15;;;;;;;4.20;1.60;;;;;;;23.09;34.19;97020.48;233490;180;151933;-57
2024/03/27 12:54:18;;;;;;;11.90;2.30;;;;;;;23.23;34.74;97016.65;233544;180;137946;-57
2024/03/27 12:59:21;;;;;;;8.00;1.90;;;;;;;23.37;34.76;97016.70;233475;180;136609;-57
2024/03/27 13:04:24;;;;;;;7.40;1.70;;;;;;;23.55;34.85;97009.94;233521;180;152123;-57
2024/03/27 13:09:27;;;;;;;17.70;11.20;;;;;;;23.67;34.33;97011.69;233464;180;137141;-51
2024/03/27 13:14:30;;;;;;;6.30;2.20;;;;;;;23.69;34.60;97007.38;233428;180;137762;-49
2024/03/27 13:19:33;;;;;;;14.70;2.40;;;;;;;23.73;34.39;96997.50;233538;180;151140;-53
2024/03/27 13:24:36;;;;;;;8.40;2.00;;;;;;;23.80;33.76;96993.48;233544;180;137628;-52
2024/03/27 13:29:39;;;;;;;5.10;1.40;;;;;;;23.79;33.78;96985.84;233512;180;136669;-50
2024/03/27 13:34:42;;;;;;;6.00;1.40;;;;;;;23.76;33.73;96977.86;233486;180;151843;-50
2024/03/27 13:39:45;;;;;;;3.70;1.50;;;;;;;23.65;33.97;96970.09;233439;180;137069;-52
2024/03/27 13:44:48;;;;;;;8.20;1.70;;;;;;;23.64;33.99;96967.27;233432;180;137790;-52
2024/03/27 13:49:51;;;;;;;3.70;1.40;;;;;;;23.42;34.05;96972.00;233466;180;151695;-52
2024/03/27 13:54:54;;;;;;;5.40;1.30;;;;;;;23.09;34.31;96979.91;233485;180;136946;-54
2024/03/27 13:59:57;;;;;;;5.50;1.30;;;;;;;22.68;34.45;96978.52;233473;180;137332;-53
2024/03/27 14:05:00;;;;;;;4.60;1.20;;;;;;;22.27;35.12;96974.48;233390;180;151359;-50
2024/03/27 14:10:04;;;;;;;2.90;1.30;;;;;;;21.86;36.10;96964.30;233369;180;137411;-54
2024/03/27 14:15:10;;;;;;;6.50;1.60;;;;;;;21.48;36.65;96974.80;233515;180;136727;-51
2024/03/27 14:20:13;;;;;;;3.30;1.30;;;;;;;21.07;37.05;96977.09;233413;180;151471;-59
2024/03/27 14:25:16;;;;;;;9.50;1.50;;;;;;;20.69;37.42;96980.57;233437;180;137624;-56
2024/03/27 14:30:19;;;;;;;5.40;1.60;;;;;;;20.37;37.70;96987.12;233475;181;136745;-58
2024/03/27 14:35:23;;;;;;;5.60;1.40;;;;;;;20.10;38.73;96980.16;233460;176;151630;-58
2024/03/27 14:40:26;;;;;;;6.30;1.30;;;;;;;19.87;38.94;96985.66;233397;180;137750;-61
2024/03/27 14:45:29;;;;;;;4.10;1.40;;;;;;;19.65;39.35;96985.09;233494;169;137057;-58
2024/03/27 14:50:32;;;;;;;4.90;1.60;;;;;;;19.46;39.43;96987.34;233442;180;152779;-58
2024/03/27 14:55:35;;;;;;;6.90;1.60;;;;;;;19.27;40.06;96989.70;233415;180;137988;-58
2024/03/27 15:00:38;;;;;;;4.80;1.60;;;;;;;19.05;40.02;96989.35;233455;180;137574;-57
2024/03/27 15:05:42;;;;;;;3.80;1.30;;;;;;;18.81;40.50;96993.88;233453;180;151989;-58
2024/03/27 15:10:45;;;;;;;6.70;1.60;;;;;;;18.61;40.26;96989.38;233447;180;137101;-58
2024/03/27 15:15:48;;;;;;;1.80;1.10;;;;;;;18.44;40.69;96993.02;233454;180;140193;-59
2024/03/27 15:20:51;;;;;;;5.30;1.40;;;;;;;18.30;40.84;96988.20;232999;180;151951;-59
2024/03/27 15:25:59;;;;;;;11.40;2.50;;;;;;;18.19;41.03;96992.80;233422;177;138033;-57
2024/03/27 15:31:02;;;;;;;1.90;1.40;;;;;;;18.11;41.12;96985.77;233503;180;137403;-59
2024/03/27 15:36:06;;;;;;;4.90;1.50;;;;;;;18.02;41.19;96985.06;233507;180;151900;-56
2024/03/27 15:41:09;;;;;;;6.10;1.80;;;;;;;17.90;41.32;96987.98;233450;180;138060;-59
2024/03/27 15:46:13;;;;;;;7.50;2.10;;;;;;;17.79;41.35;96976.80;233504;180;137701;-58
2024/03/27 15:51:16;;;;;;;4.80;2.00;;;;;;;17.66;41.73;96964.36;233544;180;152529;-58
2024/03/27 15:56:20;;;;;;;4.30;1.60;;;;;;;17.58;41.95;96962.48;233526;180;137988;-58
2024/03/27 16:01:23;;;;;;;6.20;1.90;;;;;;;17.49;42.06;96970.99;233564;180;137351;-58
2024/03/27 16:06:26;;;;;;;5.90;2.00;;;;;;;17.40;42.20;96972.16;233509;180;151825;-59
2024/03/27 16:11:29;;;;;;;6.10;1.70;;;;;;;17.33;42.16;96965.88;233450;180;137478;-58
2024/03/27 16:16:32;;;;;;;6.90;1.80;;;;;;;17.16;42.31;96966.37;233470;180;138403;-59
2024/03/27 16:21:35;;;;;;;4.00;1.90;;;;;;;17.05;42.34;96977.81;233519;180;151909;-59
2024/03/27 16:26:38;;;;;;;5.60;1.90;;;;;;;16.94;42.64;96981.31;233454;177;138768;-59
2024/03/27 16:31:41;;;;;;;5.60;1.90;;;;;;;16.82;42.76;96978.50;233509;180;137104;-58
2024/03/27 16:36:44;;;;;;;8.00;2.40;;;;;;;16.75;43.02;96974.23;233543;180;151615;-58
2024/03/27 16:41:47;;;;;;;11.20;2.60;;;;;;;16.70;43.04;96972.01;233504;180;139784;-59
2024/03/27 16:46:50;;;;;;;3.80;2.60;;;;;;;16.60;43.23;96972.69;233475;181;137914;-60
2024/03/27 16:51:53;;;;;;;7.70;2.50;;;;;;;16.51;43.42;96973.08;233483;180;153665;-58
2024/03/27 16:56:56;;;;;;;8.10;2.70;;;;;;;16.40;43.18;96976.14;233493;180;138067;-59
2024/03/27 17:02:02;;;;;;;7.00;2.70;;;;;;;16.25;43.35;96973.20;233341;180;137552;-58
2024/03/27 17:07:05;;;;;;;7.50;2.60;;;;;;;16.11;43.63;96970.77;233514;180;152303;-58
2024/03/27 17:12:10;;;;;;;6.40;2.50;;;;;;;16.05;43.72;96967.36;233484;180;137553;-57
2024/03/27 17:17:13;;;;;;;4.20;2.20;;;;;;;15.99;44.05;96978.10;233527;180;137405;-57
2024/03/27 17:22:16;;;;;;;6.10;2.70;;;;;;;15.93;44.33;96989.07;233474;181;151464;-56
2024/03/27 17:27:20;;;;;;;8.20;2.80;;;;;;;15.84;44.19;96997.98;233467;181;139351;-57
2024/03/27 17:32:23;;;;;;;6.00;2.60;;;;;;;15.74;44.22;97003.58;233462;180;137583;-57
2024/03/27 17:37:27;;;;;;;4.20;2.70;;;;;;;15.66;44.30;96998.22;233486;180;151939;-58
2024/03/27 17:42:30;;;;;;;5.40;3.10;;;;;;;15.59;44.53;97006.48;233460;180;137413;-56
2024/03/27 17:47:33;;;;;;;6.60;3.00;;;;;;;15.50;44.54;97010.48;233487;180;137827;-57
2024/03/27 17:52:36;;;;;;;6.00;2.80;;;;;;;15.44;44.70;97016.83;233494;180;151928;-58
2024/03/27 17:57:39;;;;;;;5.40;2.90;;;;;;;15.38;44.86;97012.66;233457;181;137219;-58
2024/03/27 18:02:42;;;;;;;5.60;2.70;;;;;;;15.32;44.99;97020.30;233506;177;137535;-58
2024/03/27 18:07:45;;;;;;;8.30;3.90;;;;;;;15.29;45.26;97028.58;233469;180;152590;-58
2024/03/27 18:12:48;;;;;;;5.90;2.90;;;;;;;15.26;45.44;97034.02;233498;180;139352;-58
2024/03/27 18:17:51;;;;;;;8.20;3.40;;;;;;;15.24;45.68;97033.08;233478;180;138080;-57
2024/03/27 18:22:54;;;;;;;9.00;3.40;;;;;;;15.25;45.69;97023.88;233438;180;152486;-58
2024/03/27 18:27:57;;;;;;;7.10;3.90;;;;;;;15.23;46.01;97018.40;233443;180;137536;-57
2024/03/27 18:33:00;;;;;;;7.90;3.10;;;;;;;15.17;46.16;97010.12;233418;180;137128;-58
2024/03/27 18:38:04;;;;;;;5.70;3.40;;;;;;;15.11;46.42;97007.00;233539;180;151803;-59
2024/03/27 18:43:07;;;;;;;10.20;3.80;;;;;;;15.02;46.73;97006.45;232865;180;138012;-58
2024/03/27 18:48:10;;;;;;;6.40;4.00;;;;;;;15.01;46.87;97003.92;233458;180;137612;-58
2024/03/27 18:53:13;;;;;;;8.40;3.80;;;;;;;14.98;47.03;97003.33;233510;173;152072;-57
2024/03/27 18:58:16;;;;;;;10.20;3.90;;;;;;;14.94;47.44;97002.71;233472;177;137762;-57
2024/03/27 19:03:19;;;;;;;7.30;4.20;;;;;;;14.87;47.77;96998.64;233413;177;139065;-58
2024/03/27 19:08:23;;;;;;;8.90;3.40;;;;;;;14.83;47.91;96997.31;233460;180;151540;-58
2024/03/27 19:13:26;;;;;;;7.00;3.80;;;;;;;14.82;47.98;96996.55;233459;170;138635;-58
2024/03/27 19:18:29;;;;;;;8.10;3.60;;;;;;;14.80;48.26;97004.12;233489;180;141625;-58
2024/03/27 19:23:32;;;;;;;8.70;3.30;;;;;;;14.77;48.61;97001.59;233516;180;152559;-58
2024/03/27 19:28:35;;;;;;;11.30;4.20;;;;;;;14.72;48.71;96998.60;233453;180;137367;-60
2024/03/27 19:33:39;;;;;;;16.60;4.10;;;;;;;14.70;49.09;96993.48;232863;180;138448;-57
2024/03/27 19:38:42;;;;;;;13.60;4.70;;;;;;;14.63;49.32;96983.45;233427;180;151805;-57
2024/03/27 19:43:45;;;;;;;12.70;4.00;;;;;;;14.58;49.46;96973.13;233404;180;137256;-57
2024/03/27 19:48:48;;;;;;;16.60;4.40;;;;;;;14.56;49.61;96964.70;233502;180;136928;-56
2024/03/27 19:53:51;;;;;;;10.30;4.20;;;;;;;14.56;49.82;96975.17;233416;180;151879;-58
2024/03/27 19:58:53;;;;;;;64.80;43.70;;;;;;;14.54;50.39;96971.48;233427;180;137705;-56
2024/03/27 20:03:56;;;;;;;12.80;5.20;;;;;;;14.62;50.58;96963.61;233451;173;138667;-57
2024/03/27 20:08:59;;;;;;;13.20;4.20;;;;;;;14.63;50.19;96958.30;233465;180;151562;-58
2024/03/27 20:14:03;;;;;;;12.10;3.70;;;;;;;14.58;50.29;96956.60;233482;173;137846;-57
2024/03/27 20:19:06;;;;;;;10.00;4.10;;;;;;;14.50;50.55;96949.41;233507;180;136962;-58
2024/03/27 20:24:09;;;;;;;8.70;3.60;;;;;;;14.40;50.76;96957.98;233455;180;152379;-55
2024/03/27 20:29:12;;;;;;;15.50;3.30;;;;;;;14.33;51.14;96963.05;232372;180;136995;-59
2024/03/27 20:34:15;;;;;;;6.30;3.60;;;;;;;14.28;51.15;96963.63;233523;180;137206;-59
2024/03/27 20:39:18;;;;;;;9.50;4.70;;;;;;;14.28;51.42;96963.28;233380;170;151077;-58
2024/03/27 20:44:22;;;;;;;10.50;3.50;;;;;;;14.31;51.63;96959.77;233458;180;136808;-58
2024/03/27 20:49:25;;;;;;;197.60;160.50;;;;;;;14.34;52.34;96959.00;233552;180;137896;-59
2024/03/27 20:54:28;;;;;;;18.20;9.60;;;;;;;14.48;52.34;96954.46;233466;181;152329;-59
2024/03/27 20:59:31;;;;;;;12.60;4.20;;;;;;;14.56;51.97;96955.89;233476;180;136714;-60
2024/03/27 21:04:34;;;;;;;15.20;4.00;;;;;;;14.56;51.96;96952.66;233538;180;136680;-57
2024/03/27 21:09:57;;;;;;;10.60;3.80;;;;;;;14.51;52.18;96954.63;233446;180;152515;-60
2024/03/27 21:15:00;;;;;;;9.50;5.10;;;;;;;14.38;52.54;96941.09;233564;180;138148;-57
2024/03/27 21:20:05;;;;;;;8.60;3.80;;;;;;;14.28;52.91;96933.52;233518;180;136971;-58
2024/03/27 21:25:08;;;;;;;9.80;3.50;;;;;;;14.17;53.19;96928.95;233078;181;151345;-59
2024/03/27 21:30:11;;;;;;;6.50;4.10;;;;;;;14.08;53.37;96924.15;233529;177;136786;-59
2024/03/27 21:35:14;;;;;;;27.00;18.40;;;;;;;14.07;54.19;96918.70;233543;181;137109;-59
2024/03/27 21:40:17;;;;;;;9.40;4.50;;;;;;;14.15;54.06;96915.11;233558;180;153025;-57
2024/03/27 21:45:20;;;;;;;13.20;4.60;;;;;;;14.11;53.82;96915.91;233503;180;137666;-56
2024/03/27 21:50:24;;;;;;;9.40;4.40;;;;;;;14.03;53.98;96916.23;233482;180;137623;-60
2024/03/27 21:55:31;;;;;;;8.00;4.20;;;;;;;13.93;54.26;96911.33;233540;180;152205;-60
2024/03/27 22:00:34;;;;;;;7.80;4.40;;;;;;;13.87;54.53;96903.19;233465;180;137940;-59
2024/03/27 22:05:37;;;;;;;10.30;4.60;;;;;;;13.88;54.58;96895.30;233517;180;138228;-58
2024/03/27 22:10:43;;;;;;;14.50;4.50;;;;;;;13.89;54.58;96894.86;233505;180;151874;-59
2024/03/27 22:15:46;;;;;;;10.40;4.20;;;;;;;13.79;54.76;96888.58;233510;180;137695;-59
2024/03/27 22:20:49;;;;;;;11.90;3.90;;;;;;;13.69;55.18;96880.30;233499;180;137755;-58
2024/03/27 22:25:55;;;;;;;9.20;4.40;;;;;;;13.59;55.50;96872.31;233520;180;152299;-59
2024/03/27 22:30:58;;;;;;;8.90;4.40;;;;;;;13.48;55.88;96873.13;233493;180;137897;-58
2024/03/27 22:36:19;;;;;;;9.10;4.90;;;;;;;13.41;56.04;96872.85;233309;180;139400;-59
2024/03/27 22:41:22;;;;;;;13.00;4.90;;;;;;;13.33;56.38;96864.23;233469;180;151435;-59
2024/03/27 22:46:25;;;;;;;12.50;4.50;;;;;;;13.28;56.62;96861.98;233425;180;138395;-59
2024/03/27 22:51:29;;;;;;;15.80;7.00;;;;;;;13.24;56.76;96861.08;233494;180;140253;-58
2024/03/27 22:56:32;;;;;;;10.80;4.40;;;;;;;13.22;57.01;96858.12;233473;180;151410;-57
2024/03/27 23:01:45;;;;;;;10.50;4.30;;;;;;;13.20;57.11;96853.27;233449;180;138114;-58
2024/03/27 23:06:48;;;;;;;16.20;5.60;;;;;;;13.23;57.37;96855.52;233498;180;139257;-58
2024/03/27 23:11:51;;;;;;;13.70;4.90;;;;;;;13.23;57.80;96852.91;233483;180;152070;-58
2024/03/27 23:16:54;;;;;;;11.20;4.60;;;;;;;13.25;58.07;96853.88;233446;180;139661;-58
2024/03/27 23:21:57;;;;;;;12.20;4.60;;;;;;;13.24;58.21;96842.23;233457;180;137572;-59
2024/03/27 23:27:00;;;;;;;8.80;4.10;;;;;;;13.22;58.40;96833.51;233501;180;152824;-61
2024/03/27 23:32:03;;;;;;;11.30;3.60;;;;;;;13.20;58.61;96830.33;233327;181;137560;-58